Coeur d Alene, Idaho
Current Conditions -  °F | °C
As of 2:35 PM on Tuesday 21 Oct 2014 (Local Time) from KCOE Reporting Station
Broken Clouds Broken Clouds  
Wind Chill: 55°   Ceiling: 6500
Heat Index: 55°   Visibility: 10mi
Dew Point: 43°   Wind: 13mph
Humidity: 63%   Direction: 240°WSW
Pressure: 29.94"   Gusts: NA
Location:  47.7269°N, 116.787°W
Report Text: KCOE 212135Z AUTO 24011KT 10SM SCT050 BKN065 13/06 A2994 RMK AO1 P0002
Loading
Personal Weather Stations






























Interactive Weather Map
Tropical Storm Tracking
New forecast layout! Learn more

10-Day Weather Forecast

Advertisements
Track Severe Weather on mobile